Terminal Aerodrome Forecast
Issued by NWS

Home | Current Version | Previous Version | Graphics & Text | Print | Product List | Glossary On
Versions: 1 2 3 4 5 6 7 8 9 10 11 12 13 14 15 16
265
FTUS43 KMPX 171456 AAB
TAFRNH
TAF AMD
KRNH 171456Z 1715/1812 31008KT P6SM SCT018 BKN200
      TEMPO 1715/1718 BKN018
     FM171800 28011KT P6SM SCT025 BKN200
      TEMPO 1718/1721 BKN025
     FM180100 00000KT P6SM SKC
     FM180800 00000KT P6SM BKN120=

USA.gov is the U.S. government's official web portal to all federal, state and local government web resources and services.